sensor_id;sensor_type;location;lat;lon;timestamp;temperature;humidity
14099;DHT22;7126;48.458;7.930;2023-07-20T00:00:25;21.70;99.90
14099;DHT22;7126;48.458;7.930;2023-07-20T00:02:51;21.70;99.90
14099;DHT22;7126;48.458;7.930;2023-07-20T00:05:17;21.70;99.90
14099;DHT22;7126;48.458;7.930;2023-07-20T00:07:50;21.60;99.90
14099;DHT22;7126;48.458;7.930;2023-07-20T00:10:17;21.60;99.90
14099;DHT22;7126;48.458;7.930;2023-07-20T00:12:43;21.50;99.90
14099;DHT22;7126;48.458;7.930;2023-07-20T00:15:13;21.50;99.90
14099;DHT22;7126;48.458;7.930;2023-07-20T00:17:38;21.40;99.90
14099;DHT22;7126;48.458;7.930;2023-07-20T00:20:06;21.40;99.90
14099;DHT22;7126;48.458;7.930;2023-07-20T00:22:31;21.30;99.90
14099;DHT22;7126;48.458;7.930;2023-07-20T00:24:57;21.30;99.90
14099;DHT22;7126;48.458;7.930;2023-07-20T00:27:22;21.20;99.90
14099;DHT22;7126;48.458;7.930;2023-07-20T00:29:48;21.10;99.90
14099;DHT22;7126;48.458;7.930;2023-07-20T00:32:14;21.00;99.90
14099;DHT22;7126;48.458;7.930;2023-07-20T00:34:39;20.90;99.90
14099;DHT22;7126;48.458;7.930;2023-07-20T00:37:05;20.80;99.90
14099;DHT22;7126;48.458;7.930;2023-07-20T00:39:30;20.80;99.90
14099;DHT22;7126;48.458;7.930;2023-07-20T00:41:56;20.70;99.90
14099;DHT22;7126;48.458;7.930;2023-07-20T00:44:21;20.60;99.90
14099;DHT22;7126;48.458;7.930;2023-07-20T00:46:47;20.60;99.90
14099;DHT22;7126;48.458;7.930;2023-07-20T00:49:13;20.60;99.90
14099;DHT22;7126;48.458;7.930;2023-07-20T00:51:39;20.50;99.90
14099;DHT22;7126;48.458;7.930;2023-07-20T00:54:05;20.50;99.90
14099;DHT22;7126;48.458;7.930;2023-07-20T00:56:31;20.40;99.90
14099;DHT22;7126;48.458;7.930;2023-07-20T00:58:56;20.30;99.90
14099;DHT22;7126;48.458;7.930;2023-07-20T01:01:22;20.20;99.90
14099;DHT22;7126;48.458;7.930;2023-07-20T01:03:48;20.10;99.90
14099;DHT22;7126;48.458;7.930;2023-07-20T01:06:29;20.10;99.90
14099;DHT22;7126;48.458;7.930;2023-07-20T01:09:07;20.00;99.90
14099;DHT22;7126;48.458;7.930;2023-07-20T01:12:03;20.00;99.90
14099;DHT22;7126;48.458;7.930;2023-07-20T01:14:31;20.10;99.90
14099;DHT22;7126;48.458;7.930;2023-07-20T01:16:57;20.10;99.90
14099;DHT22;7126;48.458;7.930;2023-07-20T01:19:23;20.00;99.90
14099;DHT22;7126;48.458;7.930;2023-07-20T01:25:11;20.00;99.90
14099;DHT22;7126;48.458;7.930;2023-07-20T01:33:20;20.00;99.90
14099;DHT22;7126;48.458;7.930;2023-07-20T01:35:52;20.00;99.90
14099;DHT22;7126;48.458;7.930;2023-07-20T01:38:19;20.10;99.90
14099;DHT22;7126;48.458;7.930;2023-07-20T01:40:45;20.10;99.90
14099;DHT22;7126;48.458;7.930;2023-07-20T01:43:12;20.10;99.90
14099;DHT22;7126;48.458;7.930;2023-07-20T01:45:38;20.10;99.90
14099;DHT22;7126;48.458;7.930;2023-07-20T01:48:04;20.10;99.90
14099;DHT22;7126;48.458;7.930;2023-07-20T01:50:29;20.10;99.90
14099;DHT22;7126;48.458;7.930;2023-07-20T01:52:55;20.10;99.90
14099;DHT22;7126;48.458;7.930;2023-07-20T01:55:20;20.10;99.90
14099;DHT22;7126;48.458;7.930;2023-07-20T01:57:46;20.00;99.90
14099;DHT22;7126;48.458;7.930;2023-07-20T02:00:12;20.10;99.90
14099;DHT22;7126;48.458;7.930;2023-07-20T02:02:38;20.10;99.90
14099;DHT22;7126;48.458;7.930;2023-07-20T02:05:03;20.10;99.90
14099;DHT22;7126;48.458;7.930;2023-07-20T02:07:29;20.10;99.90
14099;DHT22;7126;48.458;7.930;2023-07-20T02:09:54;20.10;99.90
14099;DHT22;7126;48.458;7.930;2023-07-20T02:12:20;20.10;99.90
14099;DHT22;7126;48.458;7.930;2023-07-20T02:14:45;20.20;99.90
14099;DHT22;7126;48.458;7.930;2023-07-20T02:17:11;20.10;99.90
14099;DHT22;7126;48.458;7.930;2023-07-20T02:19:37;20.10;99.90
14099;DHT22;7126;48.458;7.930;2023-07-20T02:22:03;20.10;99.90
14099;DHT22;7126;48.458;7.930;2023-07-20T02:24:28;20.20;99.90
14099;DHT22;7126;48.458;7.930;2023-07-20T02:26:54;20.20;99.90
14099;DHT22;7126;48.458;7.930;2023-07-20T02:29:19;20.10;99.90
14099;DHT22;7126;48.458;7.930;2023-07-20T02:31:45;20.10;99.90
14099;DHT22;7126;48.458;7.930;2023-07-20T02:34:10;20.00;99.90
14099;DHT22;7126;48.458;7.930;2023-07-20T02:36:36;20.00;99.90
14099;DHT22;7126;48.458;7.930;2023-07-20T02:39:02;20.00;99.90
14099;DHT22;7126;48.458;7.930;2023-07-20T02:41:30;20.00;99.90
14099;DHT22;7126;48.458;7.930;2023-07-20T02:43:56;20.00;99.90
14099;DHT22;7126;48.458;7.930;2023-07-20T02:46:22;20.10;99.90
14099;DHT22;7126;48.458;7.930;2023-07-20T02:48:53;20.00;99.90
14099;DHT22;7126;48.458;7.930;2023-07-20T02:51:19;20.10;99.90
14099;DHT22;7126;48.458;7.930;2023-07-20T02:53:45;20.10;99.90
14099;DHT22;7126;48.458;7.930;2023-07-20T02:56:10;20.10;99.90
14099;DHT22;7126;48.458;7.930;2023-07-20T02:58:41;20.00;99.90
14099;DHT22;7126;48.458;7.930;2023-07-20T03:01:08;20.00;99.90
14099;DHT22;7126;48.458;7.930;2023-07-20T03:03:36;19.90;99.90
14099;DHT22;7126;48.458;7.930;2023-07-20T03:06:07;19.90;99.90
14099;DHT22;7126;48.458;7.930;2023-07-20T03:08:34;19.90;99.90
14099;DHT22;7126;48.458;7.930;2023-07-20T03:11:01;19.90;99.90
14099;DHT22;7126;48.458;7.930;2023-07-20T03:13:26;19.90;99.90
14099;DHT22;7126;48.458;7.930;2023-07-20T03:15:53;19.80;99.90
14099;DHT22;7126;48.458;7.930;2023-07-20T03:18:18;19.70;99.90
14099;DHT22;7126;48.458;7.930;2023-07-20T03:20:44;19.70;99.90
14099;DHT22;7126;48.458;7.930;2023-07-20T03:23:10;19.70;99.90
14099;DHT22;7126;48.458;7.930;2023-07-20T03:25:35;19.70;99.90
14099;DHT22;7126;48.458;7.930;2023-07-20T03:28:03;19.70;99.90
14099;DHT22;7126;48.458;7.930;2023-07-20T03:30:28;19.70;99.90
14099;DHT22;7126;48.458;7.930;2023-07-20T03:32:54;19.60;99.90
14099;DHT22;7126;48.458;7.930;2023-07-20T03:35:19;19.60;99.90
14099;DHT22;7126;48.458;7.930;2023-07-20T03:37:45;19.50;99.90
14099;DHT22;7126;48.458;7.930;2023-07-20T03:40:11;19.50;99.90
14099;DHT22;7126;48.458;7.930;2023-07-20T03:42:36;19.50;99.90
14099;DHT22;7126;48.458;7.930;2023-07-20T03:45:02;19.50;99.90
14099;DHT22;7126;48.458;7.930;2023-07-20T03:47:28;19.50;99.90
14099;DHT22;7126;48.458;7.930;2023-07-20T03:49:54;19.50;99.90
14099;DHT22;7126;48.458;7.930;2023-07-20T03:52:19;19.50;99.90
14099;DHT22;7126;48.458;7.930;2023-07-20T03:54:45;19.50;99.90
14099;DHT22;7126;48.458;7.930;2023-07-20T03:57:11;19.60;99.90
14099;DHT22;7126;48.458;7.930;2023-07-20T03:59:39;19.60;99.90
14099;DHT22;7126;48.458;7.930;2023-07-20T04:02:05;19.50;99.90
14099;DHT22;7126;48.458;7.930;2023-07-20T04:04:31;19.40;99.90
14099;DHT22;7126;48.458;7.930;2023-07-20T04:06:57;19.40;99.90
14099;DHT22;7126;48.458;7.930;2023-07-20T04:09:22;19.40;99.90
14099;DHT22;7126;48.458;7.930;2023-07-20T04:11:48;19.50;99.90
14099;DHT22;7126;48.458;7.930;2023-07-20T04:14:13;19.60;99.90
14099;DHT22;7126;48.458;7.930;2023-07-20T04:16:39;19.60;99.90
14099;DHT22;7126;48.458;7.930;2023-07-20T04:19:04;19.50;99.90
14099;DHT22;7126;48.458;7.930;2023-07-20T04:21:30;19.50;99.90
14099;DHT22;7126;48.458;7.930;2023-07-20T04:23:55;19.50;99.90
14099;DHT22;7126;48.458;7.930;2023-07-20T04:26:21;19.50;99.90
14099;DHT22;7126;48.458;7.930;2023-07-20T04:28:46;19.50;99.90
14099;DHT22;7126;48.458;7.930;2023-07-20T04:31:14;19.50;99.90
14099;DHT22;7126;48.458;7.930;2023-07-20T04:33:40;19.40;99.90
14099;DHT22;7126;48.458;7.930;2023-07-20T04:36:06;19.40;99.90
14099;DHT22;7126;48.458;7.930;2023-07-20T04:38:31;19.40;99.90
14099;DHT22;7126;48.458;7.930;2023-07-20T04:40:57;19.40;99.90
14099;DHT22;7126;48.458;7.930;2023-07-20T04:43:22;19.50;99.90
14099;DHT22;7126;48.458;7.930;2023-07-20T04:45:48;19.50;99.90
14099;DHT22;7126;48.458;7.930;2023-07-20T04:48:15;19.60;99.90
14099;DHT22;7126;48.458;7.930;2023-07-20T04:50:42;19.60;99.90
14099;DHT22;7126;48.458;7.930;2023-07-20T04:53:09;19.60;99.90
14099;DHT22;7126;48.458;7.930;2023-07-20T04:55:38;19.60;99.90
14099;DHT22;7126;48.458;7.930;2023-07-20T04:58:04;19.60;99.90
14099;DHT22;7126;48.458;7.930;2023-07-20T05:00:31;19.60;99.90
14099;DHT22;7126;48.458;7.930;2023-07-20T05:02:57;19.70;99.90
14099;DHT22;7126;48.458;7.930;2023-07-20T05:05:23;19.70;99.90
14099;DHT22;7126;48.458;7.930;2023-07-20T05:07:48;19.70;99.90
14099;DHT22;7126;48.458;7.930;2023-07-20T05:10:14;19.80;99.90
14099;DHT22;7126;48.458;7.930;2023-07-20T05:12:39;19.80;99.90
14099;DHT22;7126;48.458;7.930;2023-07-20T05:15:05;19.90;99.90
14099;DHT22;7126;48.458;7.930;2023-07-20T05:17:31;20.00;99.90
14099;DHT22;7126;48.458;7.930;2023-07-20T05:19:56;20.00;99.90
14099;DHT22;7126;48.458;7.930;2023-07-20T05:22:22;20.00;99.90
14099;DHT22;7126;48.458;7.930;2023-07-20T05:24:50;20.00;99.90
14099;DHT22;7126;48.458;7.930;2023-07-20T05:27:15;20.00;99.90
14099;DHT22;7126;48.458;7.930;2023-07-20T05:29:47;20.00;99.90
14099;DHT22;7126;48.458;7.930;2023-07-20T05:32:13;20.00;99.90
14099;DHT22;7126;48.458;7.930;2023-07-20T05:34:39;20.20;99.90
14099;DHT22;7126;48.458;7.930;2023-07-20T05:37:05;20.20;99.90
14099;DHT22;7126;48.458;7.930;2023-07-20T05:39:32;20.20;99.90
14099;DHT22;7126;48.458;7.930;2023-07-20T05:41:58;20.30;99.90
14099;DHT22;7126;48.458;7.930;2023-07-20T05:44:24;20.30;99.90
14099;DHT22;7126;48.458;7.930;2023-07-20T05:46:49;20.30;99.90
14099;DHT22;7126;48.458;7.930;2023-07-20T05:49:15;20.20;99.90
14099;DHT22;7126;48.458;7.930;2023-07-20T05:51:40;20.10;99.90
14099;DHT22;7126;48.458;7.930;2023-07-20T05:54:06;20.10;99.90
14099;DHT22;7126;48.458;7.930;2023-07-20T05:56:32;20.20;99.90
14099;DHT22;7126;48.458;7.930;2023-07-20T05:58:57;20.30;99.90
14099;DHT22;7126;48.458;7.930;2023-07-20T06:01:23;20.30;99.90
14099;DHT22;7126;48.458;7.930;2023-07-20T06:03:52;20.40;99.90
14099;DHT22;7126;48.458;7.930;2023-07-20T06:06:17;20.40;99.90
14099;DHT22;7126;48.458;7.930;2023-07-20T06:08:43;20.50;99.90
14099;DHT22;7126;48.458;7.930;2023-07-20T06:11:09;20.50;99.90
14099;DHT22;7126;48.458;7.930;2023-07-20T06:13:35;20.60;99.90
14099;DHT22;7126;48.458;7.930;2023-07-20T06:16:00;20.70;99.90
14099;DHT22;7126;48.458;7.930;2023-07-20T06:18:27;20.70;99.90
14099;DHT22;7126;48.458;7.930;2023-07-20T06:20:52;20.70;99.90
14099;DHT22;7126;48.458;7.930;2023-07-20T06:23:19;20.80;99.90
14099;DHT22;7126;48.458;7.930;2023-07-20T06:25:45;20.80;99.90
14099;DHT22;7126;48.458;7.930;2023-07-20T06:28:10;20.90;99.90
14099;DHT22;7126;48.458;7.930;2023-07-20T06:30:36;21.00;99.90
14099;DHT22;7126;48.458;7.930;2023-07-20T06:33:01;21.10;99.90
14099;DHT22;7126;48.458;7.930;2023-07-20T06:35:27;21.30;99.90
14099;DHT22;7126;48.458;7.930;2023-07-20T06:37:53;21.40;99.90
14099;DHT22;7126;48.458;7.930;2023-07-20T06:40:18;21.40;99.90
14099;DHT22;7126;48.458;7.930;2023-07-20T06:42:44;21.60;99.90
14099;DHT22;7126;48.458;7.930;2023-07-20T06:45:10;21.60;99.90
14099;DHT22;7126;48.458;7.930;2023-07-20T06:47:38;21.60;99.90
14099;DHT22;7126;48.458;7.930;2023-07-20T06:50:06;21.50;99.90
14099;DHT22;7126;48.458;7.930;2023-07-20T06:52:32;21.50;99.90
14099;DHT22;7126;48.458;7.930;2023-07-20T06:54:58;21.60;99.90
14099;DHT22;7126;48.458;7.930;2023-07-20T06:57:23;21.60;99.90
14099;DHT22;7126;48.458;7.930;2023-07-20T06:59:49;21.70;99.90
14099;DHT22;7126;48.458;7.930;2023-07-20T07:02:14;21.70;99.90
14099;DHT22;7126;48.458;7.930;2023-07-20T07:04:41;21.70;99.90
14099;DHT22;7126;48.458;7.930;2023-07-20T07:07:06;21.80;99.90
14099;DHT22;7126;48.458;7.930;2023-07-20T07:09:32;21.90;99.90
14099;DHT22;7126;48.458;7.930;2023-07-20T07:11:58;21.90;99.90
14099;DHT22;7126;48.458;7.930;2023-07-20T07:14:24;21.90;99.90
14099;DHT22;7126;48.458;7.930;2023-07-20T07:16:49;21.90;99.90
14099;DHT22;7126;48.458;7.930;2023-07-20T07:19:15;22.00;99.90
14099;DHT22;7126;48.458;7.930;2023-07-20T07:21:40;22.00;99.90
14099;DHT22;7126;48.458;7.930;2023-07-20T07:24:06;22.10;99.90
14099;DHT22;7126;48.458;7.930;2023-07-20T07:26:33;22.20;99.90
14099;DHT22;7126;48.458;7.930;2023-07-20T07:28:58;22.30;99.90
14099;DHT22;7126;48.458;7.930;2023-07-20T07:31:25;22.40;99.90
14099;DHT22;7126;48.458;7.930;2023-07-20T07:33:50;22.50;99.90
14099;DHT22;7126;48.458;7.930;2023-07-20T07:36:16;22.50;99.90
14099;DHT22;7126;48.458;7.930;2023-07-20T07:38:42;22.60;99.90
14099;DHT22;7126;48.458;7.930;2023-07-20T07:41:08;22.60;99.90
14099;DHT22;7126;48.458;7.930;2023-07-20T07:43:33;22.70;99.90
14099;DHT22;7126;48.458;7.930;2023-07-20T07:46:00;22.80;99.90
14099;DHT22;7126;48.458;7.930;2023-07-20T07:48:27;22.80;99.90
14099;DHT22;7126;48.458;7.930;2023-07-20T07:50:54;22.90;99.90
14099;DHT22;7126;48.458;7.930;2023-07-20T07:53:19;22.90;99.90
14099;DHT22;7126;48.458;7.930;2023-07-20T07:55:47;22.90;99.90
14099;DHT22;7126;48.458;7.930;2023-07-20T07:58:13;22.90;99.90
14099;DHT22;7126;48.458;7.930;2023-07-20T08:00:39;23.00;99.90
14099;DHT22;7126;48.458;7.930;2023-07-20T08:03:06;23.10;99.90
14099;DHT22;7126;48.458;7.930;2023-07-20T08:05:32;23.20;99.90
14099;DHT22;7126;48.458;7.930;2023-07-20T08:07:58;23.30;99.90
14099;DHT22;7126;48.458;7.930;2023-07-20T08:10:24;23.30;99.90
14099;DHT22;7126;48.458;7.930;2023-07-20T08:12:49;23.40;99.90
14099;DHT22;7126;48.458;7.930;2023-07-20T08:15:15;23.50;99.90
14099;DHT22;7126;48.458;7.930;2023-07-20T08:17:41;23.40;99.90
14099;DHT22;7126;48.458;7.930;2023-07-20T08:20:09;23.40;99.90
14099;DHT22;7126;48.458;7.930;2023-07-20T08:22:37;23.50;99.90
14099;DHT22;7126;48.458;7.930;2023-07-20T08:25:03;23.50;99.90
14099;DHT22;7126;48.458;7.930;2023-07-20T08:27:29;23.50;99.90
14099;DHT22;7126;48.458;7.930;2023-07-20T08:29:55;23.40;99.90
14099;DHT22;7126;48.458;7.930;2023-07-20T08:32:20;23.50;99.90
14099;DHT22;7126;48.458;7.930;2023-07-20T08:34:46;23.50;99.90
14099;DHT22;7126;48.458;7.930;2023-07-20T08:37:11;23.60;99.90
14099;DHT22;7126;48.458;7.930;2023-07-20T08:39:37;23.70;99.90
14099;DHT22;7126;48.458;7.930;2023-07-20T08:42:03;23.80;99.90
14099;DHT22;7126;48.458;7.930;2023-07-20T08:44:32;23.90;99.90
14099;DHT22;7126;48.458;7.930;2023-07-20T08:47:00;24.00;99.90
14099;DHT22;7126;48.458;7.930;2023-07-20T08:49:27;24.20;99.90
14099;DHT22;7126;48.458;7.930;2023-07-20T08:51:54;24.20;99.90
14099;DHT22;7126;48.458;7.930;2023-07-20T08:54:19;24.30;99.90
14099;DHT22;7126;48.458;7.930;2023-07-20T08:56:45;24.40;99.90
14099;DHT22;7126;48.458;7.930;2023-07-20T08:59:14;24.50;99.90
14099;DHT22;7126;48.458;7.930;2023-07-20T09:01:41;24.60;99.90
14099;DHT22;7126;48.458;7.930;2023-07-20T09:04:08;24.70;99.90
14099;DHT22;7126;48.458;7.930;2023-07-20T09:06:35;24.90;99.90
14099;DHT22;7126;48.458;7.930;2023-07-20T09:09:00;25.00;99.90
14099;DHT22;7126;48.458;7.930;2023-07-20T09:11:26;25.10;99.90
14099;DHT22;7126;48.458;7.930;2023-07-20T09:14:08;25.20;99.90
14099;DHT22;7126;48.458;7.930;2023-07-20T09:16:52;25.10;99.90
14099;DHT22;7126;48.458;7.930;2023-07-20T09:19:18;25.20;99.90
14099;DHT22;7126;48.458;7.930;2023-07-20T09:21:46;25.20;99.90
14099;DHT22;7126;48.458;7.930;2023-07-20T09:24:12;25.20;99.90
14099;DHT22;7126;48.458;7.930;2023-07-20T09:26:42;25.30;99.90
14099;DHT22;7126;48.458;7.930;2023-07-20T09:29:11;25.40;99.90
14099;DHT22;7126;48.458;7.930;2023-07-20T09:31:37;25.50;99.90
14099;DHT22;7126;48.458;7.930;2023-07-20T09:34:04;25.60;99.90
14099;DHT22;7126;48.458;7.930;2023-07-20T09:36:36;25.70;99.90
14099;DHT22;7126;48.458;7.930;2023-07-20T09:39:03;25.90;99.90
14099;DHT22;7126;48.458;7.930;2023-07-20T09:41:30;26.00;99.90
14099;DHT22;7126;48.458;7.930;2023-07-20T09:43:55;25.80;99.90
14099;DHT22;7126;48.458;7.930;2023-07-20T09:46:21;25.80;99.90
14099;DHT22;7126;48.458;7.930;2023-07-20T09:48:53;25.80;99.90
14099;DHT22;7126;48.458;7.930;2023-07-20T09:51:23;25.70;99.90
14099;DHT22;7126;48.458;7.930;2023-07-20T09:53:52;25.50;99.90
14099;DHT22;7126;48.458;7.930;2023-07-20T09:56:21;25.40;99.90
14099;DHT22;7126;48.458;7.930;2023-07-20T09:58:48;25.30;99.90
14099;DHT22;7126;48.458;7.930;2023-07-20T10:01:17;25.40;99.90
14099;DHT22;7126;48.458;7.930;2023-07-20T10:03:45;25.70;99.90
14099;DHT22;7126;48.458;7.930;2023-07-20T10:06:15;25.90;99.90
14099;DHT22;7126;48.458;7.930;2023-07-20T10:08:45;26.20;99.90
14099;DHT22;7126;48.458;7.930;2023-07-20T10:11:15;26.40;99.00
14099;DHT22;7126;48.458;7.930;2023-07-20T10:13:41;26.50;97.80
14099;DHT22;7126;48.458;7.930;2023-07-20T10:16:15;26.40;98.50
14099;DHT22;7126;48.458;7.930;2023-07-20T10:21:30;26.80;97.70
14099;DHT22;7126;48.458;7.930;2023-07-20T10:23:57;26.90;97.70
14099;DHT22;7126;48.458;7.930;2023-07-20T10:26:23;26.90;97.00
14099;DHT22;7126;48.458;7.930;2023-07-20T10:28:49;26.50;97.00
14099;DHT22;7126;48.458;7.930;2023-07-20T10:31:15;26.20;98.30
14099;DHT22;7126;48.458;7.930;2023-07-20T10:33:43;26.20;98.30
14099;DHT22;7126;48.458;7.930;2023-07-20T10:36:10;26.30;98.30
14099;DHT22;7126;48.458;7.930;2023-07-20T10:41:37;26.30;98.50
14099;DHT22;7126;48.458;7.930;2023-07-20T10:44:07;26.50;97.50
14099;DHT22;7126;48.458;7.930;2023-07-20T10:49:07;26.80;98.20
14099;DHT22;7126;48.458;7.930;2023-07-20T10:51:47;27.10;97.80
14099;DHT22;7126;48.458;7.930;2023-07-20T10:56:43;27.60;95.50
14099;DHT22;7126;48.458;7.930;2023-07-20T11:01:59;28.00;95.20
14099;DHT22;7126;48.458;7.930;2023-07-20T11:04:45;28.00;95.60
14099;DHT22;7126;48.458;7.930;2023-07-20T11:07:15;28.10;96.60
14099;DHT22;7126;48.458;7.930;2023-07-20T11:09:42;28.30;96.60
14099;DHT22;7126;48.458;7.930;2023-07-20T11:12:15;28.40;97.60
14099;DHT22;7126;48.458;7.930;2023-07-20T11:14:43;28.30;97.30
14099;DHT22;7126;48.458;7.930;2023-07-20T11:17:13;28.20;97.80
14099;DHT22;7126;48.458;7.930;2023-07-20T11:19:39;28.20;96.40
14099;DHT22;7126;48.458;7.930;2023-07-20T11:22:08;28.40;96.80
14099;DHT22;7126;48.458;7.930;2023-07-20T11:24:38;28.50;96.40
14099;DHT22;7126;48.458;7.930;2023-07-20T11:27:04;28.60;95.30
14099;DHT22;7126;48.458;7.930;2023-07-20T11:29:30;28.70;96.20
14099;DHT22;7126;48.458;7.930;2023-07-20T11:31:56;28.80;95.90
14099;DHT22;7126;48.458;7.930;2023-07-20T11:34:22;29.00;94.70
14099;DHT22;7126;48.458;7.930;2023-07-20T11:36:50;29.00;95.90
14099;DHT22;7126;48.458;7.930;2023-07-20T11:39:17;29.20;94.20
14099;DHT22;7126;48.458;7.930;2023-07-20T11:41:51;29.20;94.80
14099;DHT22;7126;48.458;7.930;2023-07-20T11:44:17;29.40;94.30
14099;DHT22;7126;48.458;7.930;2023-07-20T11:46:43;29.40;94.50
14099;DHT22;7126;48.458;7.930;2023-07-20T11:49:10;29.50;93.20
14099;DHT22;7126;48.458;7.930;2023-07-20T11:51:36;29.50;91.80
14099;DHT22;7126;48.458;7.930;2023-07-20T11:54:03;29.30;91.70
14099;DHT22;7126;48.458;7.930;2023-07-20T11:56:29;29.00;91.20
14099;DHT22;7126;48.458;7.930;2023-07-20T11:58:57;28.60;92.70
14099;DHT22;7126;48.458;7.930;2023-07-20T12:01:26;28.30;95.20
14099;DHT22;7126;48.458;7.930;2023-07-20T12:03:56;28.00;95.10
14099;DHT22;7126;48.458;7.930;2023-07-20T12:06:26;27.90;93.90
14099;DHT22;7126;48.458;7.930;2023-07-20T12:08:59;28.20;93.60
14099;DHT22;7126;48.458;7.930;2023-07-20T12:11:35;28.40;90.10
14099;DHT22;7126;48.458;7.930;2023-07-20T12:14:02;28.70;90.20
14099;DHT22;7126;48.458;7.930;2023-07-20T12:16:29;28.90;90.20
14099;DHT22;7126;48.458;7.930;2023-07-20T12:19:13;29.10;90.70
14099;DHT22;7126;48.458;7.930;2023-07-20T12:21:40;29.40;91.40
14099;DHT22;7126;48.458;7.930;2023-07-20T12:24:07;29.60;90.80
14099;DHT22;7126;48.458;7.930;2023-07-20T12:26:34;29.80;91.90
14099;DHT22;7126;48.458;7.930;2023-07-20T12:29:00;30.00;91.80
14099;DHT22;7126;48.458;7.930;2023-07-20T12:31:27;29.80;92.30
14099;DHT22;7126;48.458;7.930;2023-07-20T12:33:53;29.40;91.10
14099;DHT22;7126;48.458;7.930;2023-07-20T12:36:22;29.30;91.50
14099;DHT22;7126;48.458;7.930;2023-07-20T12:38:48;29.40;90.20
14099;DHT22;7126;48.458;7.930;2023-07-20T12:41:14;29.30;91.40
14099;DHT22;7126;48.458;7.930;2023-07-20T12:43:45;29.10;92.10
14099;DHT22;7126;48.458;7.930;2023-07-20T12:46:12;29.00;91.20
14099;DHT22;7126;48.458;7.930;2023-07-20T12:48:39;29.00;92.80
14099;DHT22;7126;48.458;7.930;2023-07-20T12:51:06;29.20;94.30
14099;DHT22;7126;48.458;7.930;2023-07-20T12:53:32;29.40;92.40
14099;DHT22;7126;48.458;7.930;2023-07-20T12:55:59;29.50;93.30
14099;DHT22;7126;48.458;7.930;2023-07-20T12:58:25;29.80;93.00
14099;DHT22;7126;48.458;7.930;2023-07-20T13:00:50;29.90;91.50
14099;DHT22;7126;48.458;7.930;2023-07-20T13:03:16;30.00;91.10
14099;DHT22;7126;48.458;7.930;2023-07-20T13:05:44;30.20;92.00
14099;DHT22;7126;48.458;7.930;2023-07-20T13:08:09;30.40;93.00
14099;DHT22;7126;48.458;7.930;2023-07-20T13:10:36;30.50;92.50
14099;DHT22;7126;48.458;7.930;2023-07-20T13:13:01;30.60;91.80
14099;DHT22;7126;48.458;7.930;2023-07-20T13:15:31;30.70;90.90
14099;DHT22;7126;48.458;7.930;2023-07-20T13:17:58;30.70;90.10
14099;DHT22;7126;48.458;7.930;2023-07-20T13:20:24;30.70;91.10
14099;DHT22;7126;48.458;7.930;2023-07-20T13:22:50;30.80;88.20
14099;DHT22;7126;48.458;7.930;2023-07-20T13:25:16;30.70;85.10
14099;DHT22;7126;48.458;7.930;2023-07-20T13:27:42;30.70;86.90
14099;DHT22;7126;48.458;7.930;2023-07-20T13:30:07;30.70;89.40
14099;DHT22;7126;48.458;7.930;2023-07-20T13:32:35;30.80;85.80
14099;DHT22;7126;48.458;7.930;2023-07-20T13:35:01;30.20;81.70
14099;DHT22;7126;48.458;7.930;2023-07-20T13:37:27;29.50;82.70
14099;DHT22;7126;48.458;7.930;2023-07-20T13:39:53;29.40;82.60
14099;DHT22;7126;48.458;7.930;2023-07-20T13:42:19;29.20;83.20
14099;DHT22;7126;48.458;7.930;2023-07-20T13:44:47;29.30;87.10
14099;DHT22;7126;48.458;7.930;2023-07-20T13:47:13;29.70;90.30
14099;DHT22;7126;48.458;7.930;2023-07-20T13:49:38;30.00;85.10
14099;DHT22;7126;48.458;7.930;2023-07-20T13:52:04;30.30;86.20
14099;DHT22;7126;48.458;7.930;2023-07-20T13:54:30;30.40;85.90
14099;DHT22;7126;48.458;7.930;2023-07-20T13:56:55;30.50;87.30
14099;DHT22;7126;48.458;7.930;2023-07-20T13:59:22;30.30;86.90
14099;DHT22;7126;48.458;7.930;2023-07-20T14:01:48;29.90;87.30
14099;DHT22;7126;48.458;7.930;2023-07-20T14:04:14;29.70;89.90
14099;DHT22;7126;48.458;7.930;2023-07-20T14:06:40;29.70;90.20
14099;DHT22;7126;48.458;7.930;2023-07-20T14:09:06;29.70;90.20
14099;DHT22;7126;48.458;7.930;2023-07-20T14:11:31;29.80;90.30
14099;DHT22;7126;48.458;7.930;2023-07-20T14:13:57;29.90;87.50
14099;DHT22;7126;48.458;7.930;2023-07-20T14:16:26;30.10;87.30
14099;DHT22;7126;48.458;7.930;2023-07-20T14:18:52;30.20;82.20
14099;DHT22;7126;48.458;7.930;2023-07-20T14:21:18;30.10;84.20
14099;DHT22;7126;48.458;7.930;2023-07-20T14:23:50;30.20;88.10
14099;DHT22;7126;48.458;7.930;2023-07-20T14:26:16;30.40;87.70
14099;DHT22;7126;48.458;7.930;2023-07-20T14:28:41;30.50;86.70
14099;DHT22;7126;48.458;7.930;2023-07-20T14:31:07;30.70;87.70
14099;DHT22;7126;48.458;7.930;2023-07-20T14:33:33;30.80;85.40
14099;DHT22;7126;48.458;7.930;2023-07-20T14:35:59;30.70;84.30
14099;DHT22;7126;48.458;7.930;2023-07-20T14:38:27;30.60;86.50
14099;DHT22;7126;48.458;7.930;2023-07-20T14:40:53;30.20;81.10
14099;DHT22;7126;48.458;7.930;2023-07-20T14:43:19;29.90;80.00
14099;DHT22;7126;48.458;7.930;2023-07-20T14:45:45;29.60;87.70
14099;DHT22;7126;48.458;7.930;2023-07-20T14:48:10;29.40;84.50
14099;DHT22;7126;48.458;7.930;2023-07-20T14:50:36;29.20;85.00
14099;DHT22;7126;48.458;7.930;2023-07-20T14:53:02;29.00;86.40
14099;DHT22;7126;48.458;7.930;2023-07-20T14:55:28;28.80;88.80
14099;DHT22;7126;48.458;7.930;2023-07-20T14:57:54;28.70;88.70
14099;DHT22;7126;48.458;7.930;2023-07-20T15:00:20;28.50;88.80
14099;DHT22;7126;48.458;7.930;2023-07-20T15:02:45;28.30;89.10
14099;DHT22;7126;48.458;7.930;2023-07-20T15:05:11;28.20;90.80
14099;DHT22;7126;48.458;7.930;2023-07-20T15:07:37;28.00;90.40
14099;DHT22;7126;48.458;7.930;2023-07-20T15:10:04;27.90;90.80
14099;DHT22;7126;48.458;7.930;2023-07-20T15:12:32;27.90;90.10
14099;DHT22;7126;48.458;7.930;2023-07-20T15:15:14;27.80;90.00
14099;DHT22;7126;48.458;7.930;2023-07-20T15:17:42;27.80;90.70
14099;DHT22;7126;48.458;7.930;2023-07-20T15:20:11;27.70;90.20
14099;DHT22;7126;48.458;7.930;2023-07-20T15:22:37;27.60;87.60
14099;DHT22;7126;48.458;7.930;2023-07-20T15:25:05;27.70;88.90
14099;DHT22;7126;48.458;7.930;2023-07-20T15:27:30;28.00;88.40
14099;DHT22;7126;48.458;7.930;2023-07-20T15:29:56;28.20;91.00
14099;DHT22;7126;48.458;7.930;2023-07-20T15:32:22;28.50;90.70
14099;DHT22;7126;48.458;7.930;2023-07-20T15:34:48;28.60;90.40
14099;DHT22;7126;48.458;7.930;2023-07-20T15:37:14;28.70;90.00
14099;DHT22;7126;48.458;7.930;2023-07-20T15:39:40;28.80;90.50
14099;DHT22;7126;48.458;7.930;2023-07-20T15:42:06;28.80;90.50
14099;DHT22;7126;48.458;7.930;2023-07-20T15:44:31;28.80;89.70
14099;DHT22;7126;48.458;7.930;2023-07-20T15:46:57;28.70;89.70
14099;DHT22;7126;48.458;7.930;2023-07-20T15:49:23;28.70;89.90
14099;DHT22;7126;48.458;7.930;2023-07-20T15:51:53;28.60;89.50
14099;DHT22;7126;48.458;7.930;2023-07-20T15:54:19;28.60;87.80
14099;DHT22;7126;48.458;7.930;2023-07-20T15:56:44;28.60;90.00
14099;DHT22;7126;48.458;7.930;2023-07-20T15:59:12;28.50;89.90
14099;DHT22;7126;48.458;7.930;2023-07-20T16:01:38;28.40;90.20
14099;DHT22;7126;48.458;7.930;2023-07-20T16:04:05;28.20;90.00